createdAt,value
2019-01-13T00:02:04.849Z,100280.00
2019-01-13T00:04:36.494Z,100283.84
2019-01-13T00:07:08.117Z,100275.58
2019-01-13T00:09:39.903Z,100273.80
2019-01-13T00:12:11.591Z,100272.05
2019-01-13T00:14:43.203Z,100276.31
2019-01-13T00:17:14.839Z,100273.67
2019-01-13T00:19:46.573Z,100265.41
2019-01-13T00:22:18.247Z,100271.04
2019-01-13T00:24:49.907Z,100269.33
2019-01-13T00:27:21.637Z,100273.20
2019-01-13T00:29:53.287Z,100267.89
2019-01-13T00:32:24.951Z,100263.95
2019-01-13T00:34:56.612Z,100265.25
2019-01-13T00:37:28.668Z,100268.66
2019-01-13T00:40:01.027Z,100275.17
2019-01-13T00:42:33.310Z,100271.71
2019-01-13T00:45:06.825Z,100279.95
2019-01-13T00:47:39.198Z,100272.98
2019-01-13T00:50:13.754Z,100268.59
2019-01-13T00:52:45.962Z,100262.49
2019-01-13T00:55:18.693Z,100266.78
2019-01-13T00:57:50.359Z,100268.53
2019-01-13T01:00:26.862Z,100270.79
2019-01-13T01:02:56.668Z,100260.33
2019-01-13T01:05:28.588Z,100265.09
2019-01-13T01:08:00.187Z,100269.36
2019-01-13T01:10:31.924Z,100272.80
2019-01-13T01:13:03.533Z,100269.77
2019-01-13T01:15:35.286Z,100261.44
2019-01-13T01:18:07.049Z,100261.00
2019-01-13T01:20:38.717Z,100260.11
2019-01-13T01:23:10.324Z,100258.36
2019-01-13T01:25:42.168Z,100267.52
2019-01-13T01:28:13.800Z,100267.16
2019-01-13T01:30:45.501Z,100270.22
2019-01-13T01:33:17.194Z,100264.59
2019-01-13T01:35:48.834Z,100261.92
2019-01-13T01:38:20.621Z,100266.21
2019-01-13T01:40:53.104Z,100264.53
2019-01-13T01:43:24.728Z,100270.98
2019-01-13T01:45:56.324Z,100269.74
2019-01-13T01:48:28.056Z,100271.94
2019-01-13T01:50:59.630Z,100278.01
2019-01-13T01:53:31.256Z,100274.98
2019-01-13T01:56:03.601Z,100285.77
2019-01-13T01:58:35.199Z,100283.22
2019-01-13T02:01:07.570Z,100292.80
2019-01-13T02:03:40.903Z,100292.28
2019-01-13T02:06:12.648Z,100291.78
2019-01-13T02:08:44.287Z,100289.52
2019-01-13T02:11:16.535Z,100291.23
2019-01-13T02:13:48.157Z,100295.15
2019-01-13T02:16:20.047Z,100289.08
2019-01-13T02:18:52.770Z,100278.61
2019-01-13T02:21:24.778Z,100272.89
2019-01-13T02:23:56.698Z,100268.09
2019-01-13T02:26:28.488Z,100275.84
2019-01-13T02:29:00.488Z,100269.23
2019-01-13T02:31:32.094Z,100264.84
2019-01-13T02:34:03.857Z,100260.00
2019-01-13T02:36:35.460Z,100262.12
2019-01-13T02:39:09.235Z,100257.77
2019-01-13T02:41:41.006Z,100255.55
2019-01-13T02:44:12.667Z,100255.92
2019-01-13T02:46:44.719Z,100252.42
2019-01-13T02:49:16.438Z,100243.70
2019-01-13T02:51:48.149Z,100245.87
2019-01-13T02:54:19.867Z,100247.58
2019-01-13T02:56:51.575Z,100245.45
2019-01-13T02:59:23.264Z,100251.12
2019-01-13T03:01:54.937Z,100256.30
2019-01-13T03:04:26.558Z,100254.14
2019-01-13T03:06:58.377Z,100252.80
2019-01-13T03:09:30.032Z,100247.58
2019-01-13T03:12:01.751Z,100247.14
2019-01-13T03:14:33.370Z,100250.19
2019-01-13T03:17:05.017Z,100251.05
2019-01-13T03:19:36.739Z,100256.16
2019-01-13T03:22:09.316Z,100256.06
2019-01-13T03:24:40.919Z,100258.61
2019-01-13T03:27:12.560Z,100260.63
2019-01-13T03:29:44.221Z,100261.91
2019-01-13T03:32:15.860Z,100257.47
2019-01-13T03:34:47.451Z,100258.70
2019-01-13T03:37:19.966Z,100246.00
2019-01-13T03:39:52.958Z,100245.45
2019-01-13T03:42:24.575Z,100241.92
2019-01-13T03:44:56.376Z,100235.28
2019-01-13T03:47:28.101Z,100229.69
2019-01-13T03:50:00.037Z,100228.77
2019-01-13T03:52:31.757Z,100226.59
2019-01-13T03:55:03.420Z,100216.64
2019-01-13T03:57:35.066Z,100214.41
2019-01-13T04:00:11.590Z,100207.02
2019-01-13T04:02:43.211Z,100200.16
2019-01-13T04:05:15.034Z,100200.16
2019-01-13T04:07:47.523Z,100191.92
2019-01-13T04:10:19.723Z,100190.61
2019-01-13T04:12:51.460Z,100188.00
2019-01-13T04:16:02.588Z,100174.06
2019-01-13T04:18:34.229Z,100168.84
2019-01-13T04:21:05.891Z,100190.61
2019-01-13T04:23:37.697Z,100192.81
2019-01-13T04:26:09.298Z,100184.53
2019-01-13T04:28:41.027Z,100181.00
2019-01-13T04:31:12.621Z,100184.02
2019-01-13T04:33:44.255Z,100176.56
2019-01-13T04:36:15.860Z,100176.52
2019-01-13T04:38:48.428Z,100176.48
2019-01-13T04:41:20.740Z,100166.94
2019-01-13T04:45:09.593Z,100162.13
2019-01-13T04:47:41.214Z,100159.70
2019-01-13T04:50:12.909Z,100165.38
2019-01-13T04:52:45.012Z,100171.45
2019-01-13T04:55:16.787Z,100176.26
2019-01-13T04:57:49.178Z,100168.02
2019-01-13T05:00:21.488Z,100178.88
2019-01-13T05:02:53.129Z,100177.16
2019-01-13T05:05:24.755Z,100174.09
2019-01-13T05:07:56.356Z,100172.34
2019-01-13T05:10:28.087Z,100167.09
2019-01-13T05:13:00.466Z,100165.34
2019-01-13T05:15:32.131Z,100162.66
2019-01-13T05:18:03.817Z,100161.35
2019-01-13T05:20:35.779Z,100153.93
2019-01-13T05:23:07.376Z,100154.38
2019-01-13T05:25:39.069Z,100146.17
2019-01-13T05:28:10.719Z,100144.39
2019-01-13T05:30:42.427Z,100141.33
2019-01-13T05:33:14.025Z,100136.11
2019-01-13T05:35:45.733Z,100133.87
2019-01-13T05:38:17.325Z,100122.53
2019-01-13T05:40:49.476Z,100113.73
2019-01-13T05:43:21.135Z,100108.47
2019-01-13T05:45:52.779Z,100104.89
2019-01-13T05:48:24.442Z,100102.24
2019-01-13T05:50:56.191Z,100098.29
2019-01-13T05:53:27.781Z,100089.03
2019-01-13T05:56:00.263Z,100089.48
2019-01-13T05:58:31.963Z,100087.28
2019-01-13T06:01:03.660Z,100085.98
2019-01-13T06:03:35.283Z,100088.59
2019-01-13T06:06:07.000Z,100078.55
2019-01-13T06:08:38.735Z,100077.20
2019-01-13T06:11:10.322Z,100076.39
2019-01-13T06:13:42.093Z,100067.25
2019-01-13T06:16:13.747Z,100072.03
2019-01-13T06:18:45.454Z,100078.14
2019-01-13T06:21:17.073Z,100077.36
2019-01-13T06:23:48.942Z,100070.77
2019-01-13T06:26:20.894Z,100071.21
2019-01-13T06:28:53.014Z,100064.76
2019-01-13T06:31:24.852Z,100068.67
2019-01-13T06:33:56.580Z,100073.45
2019-01-13T06:36:28.343Z,100067.37
2019-01-13T06:39:00.054Z,100061.78
2019-01-13T06:41:32.348Z,100050.89
2019-01-13T06:44:04.237Z,100042.57
2019-01-13T06:46:35.851Z,100044.33
2019-01-13T06:49:07.914Z,100038.13
2019-01-13T06:51:39.580Z,100029.81
2019-01-13T06:54:11.276Z,100016.30
2019-01-13T06:56:46.046Z,100010.63
2019-01-13T06:59:21.759Z,100010.97
2019-01-13T07:02:03.338Z,100011.41
2019-01-13T07:04:36.806Z,100021.37
2019-01-13T07:07:10.633Z,100013.53
2019-01-13T07:09:45.981Z,100010.88
2019-01-13T07:12:19.477Z,100016.47
2019-01-13T07:14:55.172Z,100000.89
2019-01-13T07:17:28.289Z,99998.20
2019-01-13T07:20:00.604Z,99988.23
2019-01-13T07:22:37.987Z,99993.37
2019-01-13T07:25:10.832Z,99988.23
2019-01-13T07:27:44.567Z,99996.11
2019-01-13T07:30:26.394Z,99997.05
2019-01-13T07:32:58.061Z,99973.97
2019-01-13T07:35:31.273Z,99965.23
2019-01-13T07:38:06.624Z,99961.72
2019-01-13T07:40:49.844Z,99961.72
2019-01-13T07:43:21.567Z,99975.18
2019-01-13T07:45:53.512Z,99974.38
2019-01-13T07:48:29.039Z,99975.23
2019-01-13T07:51:03.726Z,99972.05
2019-01-13T07:53:41.590Z,99973.30
2019-01-13T07:56:20.475Z,99954.13
2019-01-13T07:58:55.321Z,99954.98
2019-01-13T08:01:27.206Z,99953.63
2019-01-13T08:04:08.917Z,99953.18
2019-01-13T08:06:42.358Z,99950.98
2019-01-13T08:09:14.093Z,99942.73
2019-01-13T08:11:45.800Z,99944.45
2019-01-13T08:14:17.459Z,99945.30
2019-01-13T08:16:49.199Z,99943.59
2019-01-13T08:19:20.853Z,99937.97
2019-01-13T08:21:52.538Z,99951.06
2019-01-13T08:24:24.263Z,99962.86
2019-01-13T08:26:56.898Z,99956.83
2019-01-13T08:29:28.977Z,99962.13
2019-01-13T08:32:00.762Z,99960.91
2019-01-13T08:34:32.582Z,99957.61
2019-01-13T08:37:04.257Z,99956.47
2019-01-13T08:39:36.681Z,99960.95
2019-01-13T08:42:08.490Z,99957.13
2019-01-13T08:44:40.147Z,99946.28
2019-01-13T08:47:11.729Z,99940.73
2019-01-13T08:49:43.493Z,99945.55
2019-01-13T08:52:16.672Z,99943.84
2019-01-13T08:54:50.327Z,99952.56
2019-01-13T08:57:22.147Z,99950.93
2019-01-13T08:59:53.826Z,99962.80
2019-01-13T09:02:32.040Z,99954.55
2019-01-13T09:05:00.269Z,99951.99
2019-01-13T09:07:31.947Z,99955.86
2019-01-13T09:10:03.849Z,99948.89
2019-01-13T09:12:35.879Z,99942.36
2019-01-13T09:15:11.352Z,99943.22
2019-01-13T09:17:43.076Z,99947.47
2019-01-13T09:20:21.176Z,99943.59
2019-01-13T09:22:53.056Z,99941.51
2019-01-13T09:25:24.849Z,99947.22
2019-01-13T09:27:57.691Z,99952.48
2019-01-13T09:30:30.835Z,99958.15
2019-01-13T09:33:02.482Z,99946.89
2019-01-13T09:35:34.238Z,99942.90
2019-01-13T09:38:06.817Z,99939.88
2019-01-13T09:40:39.345Z,99932.02
2019-01-13T09:43:11.813Z,99929.81
2019-01-13T09:45:43.517Z,99931.56
2019-01-13T09:48:15.225Z,99922.34
2019-01-13T09:50:46.991Z,99924.02
2019-01-13T09:53:18.737Z,99916.16
2019-01-13T09:55:50.431Z,99920.92
2019-01-13T09:58:22.736Z,99907.91
2019-01-13T10:00:54.510Z,99903.10
2019-01-13T10:03:26.336Z,99898.73
2019-01-13T10:05:58.053Z,99890.41
2019-01-13T10:08:29.883Z,99879.49
2019-01-13T10:11:01.571Z,99872.92
2019-01-13T10:13:33.445Z,99870.77
2019-01-13T10:16:05.217Z,99863.79
2019-01-13T10:18:36.939Z,99852.45
2019-01-13T10:21:08.593Z,99833.69
2019-01-13T10:23:40.547Z,99844.90
2019-01-13T10:26:12.306Z,99844.41
2019-01-13T10:28:44.034Z,99843.50
2019-01-13T10:31:15.977Z,99834.37
2019-01-13T10:33:47.764Z,99832.98
2019-01-13T10:36:19.613Z,99815.97
2019-01-13T10:38:58.901Z,99808.49
2019-01-13T10:41:31.390Z,99799.68
2019-01-13T10:44:09.988Z,99790.50
2019-01-13T10:46:44.875Z,99781.68
2019-01-13T10:49:26.089Z,99781.18
2019-01-13T10:51:56.028Z,99781.13
2019-01-13T10:54:32.176Z,99775.91
2019-01-13T10:57:02.509Z,99763.30
2019-01-13T10:59:39.549Z,99755.47
2019-01-13T11:02:14.974Z,99754.22
2019-01-13T11:04:46.802Z,99751.11
2019-01-13T11:07:20.485Z,99744.50
2019-01-13T11:09:52.377Z,99740.21
2019-01-13T11:12:24.044Z,99735.76
2019-01-13T11:14:55.756Z,99720.55
2019-01-13T11:17:27.375Z,99727.61
2019-01-13T11:19:59.879Z,99714.47
2019-01-13T11:22:31.543Z,99710.11
2019-01-13T11:25:03.697Z,99712.31
2019-01-13T11:27:35.541Z,99695.75
2019-01-13T11:30:11.913Z,99694.84
2019-01-13T11:32:43.708Z,99701.23
2019-01-13T11:35:15.805Z,99693.40
2019-01-13T11:37:48.098Z,99690.27
2019-01-13T11:40:25.720Z,99679.73
2019-01-13T11:42:57.478Z,99659.20
2019-01-13T11:45:29.141Z,99634.39
2019-01-13T11:48:00.915Z,99641.31
2019-01-13T11:50:32.713Z,99640.72
2019-01-13T11:53:04.751Z,99643.68
2019-01-13T11:55:36.508Z,99650.58
2019-01-13T11:58:08.402Z,99647.05
2019-01-13T12:00:46.429Z,99629.23
2019-01-13T12:03:18.859Z,99639.81
2019-01-13T12:05:50.566Z,99625.00
2019-01-13T12:08:22.304Z,99623.70
2019-01-13T12:10:54.006Z,99613.20
2019-01-13T12:13:26.471Z,99616.57
2019-01-13T12:15:59.591Z,99626.62
2019-01-13T12:18:31.617Z,99625.26
2019-01-13T12:21:05.303Z,99613.91
2019-01-13T12:23:39.535Z,99608.28
2019-01-13T12:26:11.470Z,99604.77
2019-01-13T12:28:46.097Z,99610.39
2019-01-13T12:31:28.127Z,99599.54
2019-01-13T12:34:09.079Z,99591.70
2019-01-13T12:36:42.690Z,99585.58
2019-01-13T12:39:20.271Z,99587.73
2019-01-13T12:41:57.897Z,99572.91
2019-01-13T12:44:32.484Z,99580.61
2019-01-13T12:47:06.939Z,99570.86
2019-01-13T12:49:46.395Z,99555.53
2019-01-13T12:52:23.680Z,99560.21
2019-01-13T12:55:01.576Z,99559.30
2019-01-13T12:57:37.058Z,99559.30
2019-01-13T13:00:15.651Z,99565.33
2019-01-13T13:02:48.095Z,99558.19
2019-01-13T13:05:25.774Z,99546.38
2019-01-13T13:08:03.561Z,99556.77
2019-01-13T13:10:48.090Z,99550.94
2019-01-13T13:13:19.820Z,99545.72
2019-01-13T13:15:51.514Z,99531.74
2019-01-13T13:18:23.247Z,99543.75
2019-01-13T13:20:55.400Z,99540.22
2019-01-13T13:23:27.404Z,99548.83
2019-01-13T13:25:59.234Z,99552.23
2019-01-13T13:28:30.988Z,99547.40
2019-01-13T13:31:02.747Z,99530.41
2019-01-13T13:33:38.656Z,99553.78
2019-01-13T13:36:10.216Z,99540.27
2019-01-13T13:38:41.922Z,99533.27
2019-01-13T13:41:14.207Z,99535.37
2019-01-13T13:43:43.506Z,99530.05
2019-01-13T13:46:15.232Z,99516.41
2019-01-13T13:48:46.986Z,99518.02
2019-01-13T13:51:19.355Z,99522.33
2019-01-13T13:53:51.795Z,99522.73
2019-01-13T13:56:23.494Z,99513.03
2019-01-13T13:58:55.275Z,99512.67
2019-01-13T14:01:27.066Z,99507.89
2019-01-13T14:03:58.874Z,99503.98
2019-01-13T14:06:30.577Z,99499.20
2019-01-13T14:09:03.701Z,99486.59
2019-01-13T14:11:35.435Z,99485.67
2019-01-13T14:14:07.869Z,99468.14
2019-01-13T14:16:39.704Z,99450.69
2019-01-13T14:19:11.821Z,99429.32
2019-01-13T14:21:43.556Z,99440.62
2019-01-13T14:24:15.974Z,99453.30
2019-01-13T14:26:47.749Z,99450.69
2019-01-13T14:29:19.575Z,99443.30
2019-01-13T14:31:51.318Z,99438.08
2019-01-13T14:34:23.177Z,99444.22
2019-01-13T14:36:54.968Z,99454.22
2019-01-13T14:39:27.570Z,99463.37
2019-01-13T14:42:00.139Z,99457.77
2019-01-13T14:44:31.992Z,99453.76
2019-01-13T14:47:03.759Z,99438.47
2019-01-13T14:49:35.556Z,99449.72
2019-01-13T14:52:07.576Z,99433.09
2019-01-13T14:54:40.056Z,99418.19
2019-01-13T14:57:11.871Z,99416.36
2019-01-13T14:59:43.639Z,99399.77
2019-01-13T15:02:15.446Z,99410.58
2019-01-13T15:04:47.190Z,99409.66
2019-01-13T15:07:18.918Z,99393.06
2019-01-13T15:09:51.038Z,99410.84
2019-01-13T15:12:26.461Z,99410.84
2019-01-13T15:14:58.591Z,99405.22
2019-01-13T15:17:30.374Z,99410.45
2019-01-13T15:20:02.175Z,99409.59
2019-01-13T15:22:33.937Z,99418.30
2019-01-13T15:25:07.137Z,99425.12
2019-01-13T15:27:39.055Z,99410.62
2019-01-13T15:30:21.268Z,99406.98
2019-01-13T15:32:53.041Z,99405.16
2019-01-13T15:35:24.750Z,99418.47
2019-01-13T15:37:56.504Z,99410.00
2019-01-13T15:40:30.123Z,99408.63
2019-01-13T15:43:01.940Z,99409.41
2019-01-13T15:45:33.791Z,99382.41
2019-01-13T15:48:06.350Z,99367.92
2019-01-13T15:50:38.008Z,99367.11
2019-01-13T15:53:09.663Z,99359.62
2019-01-13T15:55:41.434Z,99361.25
2019-01-13T15:58:14.122Z,99354.65
2019-01-13T16:00:45.919Z,99339.87
2019-01-13T16:03:17.633Z,99343.73
2019-01-13T16:05:49.660Z,99345.71
2019-01-13T16:08:21.410Z,99344.87
2019-01-13T16:10:53.170Z,99336.95
2019-01-13T16:13:25.012Z,99336.49
2019-01-13T16:15:56.786Z,99343.84
2019-01-13T16:18:28.738Z,99340.70
2019-01-13T16:21:00.625Z,99327.17
2019-01-13T16:23:32.484Z,99325.40
2019-01-13T16:26:04.277Z,99308.33
2019-01-13T16:28:36.152Z,99298.68
2019-01-13T16:31:08.333Z,99303.84
2019-01-13T16:33:40.142Z,99306.39
2019-01-13T16:36:11.960Z,99302.01
2019-01-13T16:38:43.645Z,99307.98
2019-01-13T16:41:16.661Z,99301.45
2019-01-13T16:43:48.470Z,99290.98
2019-01-13T16:46:20.766Z,99295.30
2019-01-13T16:48:52.625Z,99286.52
2019-01-13T16:51:24.502Z,99269.06
2019-01-13T16:53:56.219Z,99262.91
2019-01-13T16:56:28.079Z,99253.75
2019-01-13T16:58:59.777Z,99258.13
2019-01-13T17:01:31.777Z,99252.52
2019-01-13T17:04:03.510Z,99245.59
2019-01-13T17:06:35.367Z,99239.61
2019-01-13T17:09:12.188Z,99249.68
2019-01-13T17:11:43.894Z,99237.84
2019-01-13T17:14:16.870Z,99233.91
2019-01-13T17:16:48.801Z,99233.91
2019-01-13T17:19:20.565Z,99229.42
2019-01-13T17:21:52.247Z,99228.44
2019-01-13T17:24:24.031Z,99239.75
2019-01-13T17:26:56.338Z,99231.41
2019-01-13T17:29:28.140Z,99220.48
2019-01-13T17:32:00.095Z,99199.20
2019-01-13T17:34:35.820Z,99209.95
2019-01-13T17:37:05.501Z,99196.40
2019-01-13T17:39:37.206Z,99204.92
2019-01-13T17:42:09.750Z,99217.09
2019-01-13T17:44:41.588Z,99235.33
2019-01-13T17:47:13.498Z,99240.56
2019-01-13T17:49:45.158Z,99238.33
2019-01-13T17:52:18.126Z,99228.72
2019-01-13T17:54:49.923Z,99240.70
2019-01-13T17:57:21.732Z,99237.16
2019-01-13T17:59:53.503Z,99231.75
2019-01-13T18:02:25.470Z,99225.20
2019-01-13T18:04:57.329Z,99226.38
2019-01-13T18:07:29.098Z,99217.98
2019-01-13T18:10:00.850Z,99220.07
2019-01-13T18:12:32.565Z,99206.88
2019-01-13T18:15:04.709Z,99211.58
2019-01-13T18:17:36.361Z,99210.02
2019-01-13T18:20:13.612Z,99204.13
2019-01-13T18:22:45.507Z,99189.66
2019-01-13T18:25:17.223Z,99191.36
2019-01-13T18:27:49.551Z,99174.27
2019-01-13T18:30:24.009Z,99181.16
2019-01-13T18:32:56.060Z,99168.38
2019-01-13T18:35:28.113Z,99156.06
2019-01-13T18:37:59.864Z,99158.56
2019-01-13T18:40:32.367Z,99143.24
2019-01-13T18:43:04.217Z,99137.01
2019-01-13T18:45:35.989Z,99128.97
2019-01-13T18:48:07.811Z,99133.27
2019-01-13T18:50:39.690Z,99110.83
2019-01-13T18:53:14.691Z,99109.44
2019-01-13T18:55:46.454Z,99106.63
2019-01-13T18:58:18.211Z,99097.77
2019-01-13T19:00:50.018Z,99105.90
2019-01-13T19:03:21.724Z,99109.67
2019-01-13T19:05:53.697Z,99108.75
2019-01-13T19:08:26.385Z,99112.20
2019-01-13T19:11:32.943Z,99097.61
2019-01-13T19:14:55.764Z,99114.17
2019-01-13T19:17:29.031Z,99132.44
2019-01-13T19:20:17.436Z,99125.50
2019-01-13T19:22:56.176Z,99127.93
2019-01-13T19:25:31.190Z,99121.84
2019-01-13T19:28:03.110Z,99129.63
2019-01-13T19:30:35.290Z,99125.61
2019-01-13T19:33:07.152Z,99145.16
2019-01-13T19:35:38.895Z,99144.69
2019-01-13T19:38:10.778Z,99148.54
2019-01-13T19:40:43.861Z,99141.06
2019-01-13T19:43:15.870Z,99147.04
2019-01-13T19:45:47.672Z,99134.24
2019-01-13T19:48:19.507Z,99135.94
2019-01-13T19:50:51.267Z,99125.27
2019-01-13T19:53:23.560Z,99130.04
2019-01-13T19:55:55.404Z,99127.34
2019-01-13T19:58:27.216Z,99130.80
2019-01-13T20:01:00.756Z,99124.64
2019-01-13T20:03:32.512Z,99121.52
2019-01-13T20:06:04.456Z,99116.78
2019-01-13T20:08:36.465Z,99120.70
2019-01-13T20:11:08.280Z,99118.55
2019-01-13T20:13:40.128Z,99132.66
2019-01-13T20:16:12.234Z,99139.75
2019-01-13T20:18:43.999Z,99140.60
2019-01-13T20:21:16.068Z,99164.65
2019-01-13T20:23:48.058Z,99175.12
2019-01-13T20:26:19.959Z,99154.01
2019-01-13T20:28:51.721Z,99171.31
2019-01-13T20:31:24.332Z,99162.45
2019-01-13T20:33:56.157Z,99174.05
2019-01-13T20:36:27.904Z,99166.19
2019-01-13T20:38:59.677Z,99157.20
2019-01-13T20:41:32.304Z,99154.47
2019-01-13T20:44:04.078Z,99152.58
2019-01-13T20:46:35.873Z,99143.48
2019-01-13T20:49:07.807Z,99134.28
2019-01-13T20:51:41.281Z,99149.69
2019-01-13T20:54:13.023Z,99167.13
2019-01-13T20:56:44.739Z,99178.91
2019-01-13T20:59:16.589Z,99178.31
2019-01-13T21:01:48.406Z,99167.07
2019-01-13T21:04:20.137Z,99168.18
2019-01-13T21:06:51.923Z,99165.63
2019-01-13T21:09:23.672Z,99165.25
2019-01-13T21:11:55.531Z,99155.81
2019-01-13T21:14:27.250Z,99153.19
2019-01-13T21:16:59.040Z,99158.05
2019-01-13T21:19:31.334Z,99158.89
2019-01-13T21:22:03.147Z,99153.66
2019-01-13T21:24:37.807Z,99155.81
2019-01-13T21:27:09.558Z,99156.66
2019-01-13T21:29:41.307Z,99155.34
2019-01-13T21:32:13.152Z,99175.27
2019-01-13T21:34:45.027Z,99163.94
2019-01-13T21:37:16.823Z,99160.86
2019-01-13T21:39:48.503Z,99156.09
2019-01-13T21:42:21.048Z,99156.02
2019-01-13T21:44:52.709Z,99155.09
2019-01-13T21:47:24.647Z,99162.83
2019-01-13T21:49:56.639Z,99161.83
2019-01-13T21:52:28.379Z,99163.53
2019-01-13T21:55:00.171Z,99160.45
2019-01-13T21:57:31.842Z,99161.65
2019-01-13T22:00:04.282Z,99163.80
2019-01-13T22:02:36.229Z,99166.34
2019-01-13T22:05:09.515Z,99158.49
2019-01-13T22:07:41.240Z,99154.10
2019-01-13T22:10:16.395Z,99156.64
2019-01-13T22:12:48.152Z,99163.08
2019-01-13T22:15:20.972Z,99163.55
2019-01-13T22:17:52.700Z,99163.47
2019-01-13T22:20:25.032Z,99160.92
2019-01-13T22:22:56.695Z,99160.57
2019-01-13T22:25:28.447Z,99159.34
2019-01-13T22:28:00.099Z,99162.34
2019-01-13T22:30:31.758Z,99159.34
2019-01-13T22:33:03.460Z,99180.67
2019-01-13T22:35:35.247Z,99186.27
2019-01-13T22:38:07.270Z,99188.42
2019-01-13T22:40:39.125Z,99186.76
2019-01-13T22:43:11.515Z,99187.69
2019-01-13T22:45:43.275Z,99201.23
2019-01-13T22:48:14.918Z,99198.23
2019-01-13T22:50:46.669Z,99205.88
2019-01-13T22:53:18.734Z,99213.14
2019-01-13T22:55:50.431Z,99218.64
2019-01-13T22:58:22.142Z,99212.81
2019-01-13T23:01:16.962Z,99217.14
2019-01-13T23:03:49.137Z,99206.12
2019-01-13T23:06:20.912Z,99210.75
2019-01-13T23:08:52.646Z,99220.38
2019-01-13T23:11:24.484Z,99231.86
2019-01-13T23:17:02.742Z,99235.58
2019-01-13T23:19:34.520Z,99229.18
2019-01-13T23:22:06.330Z,99236.28
2019-01-13T23:24:38.282Z,99230.27
2019-01-13T23:27:10.178Z,99240.35
2019-01-13T23:29:41.883Z,99243.53
2019-01-13T23:32:13.583Z,99257.36
2019-01-13T23:34:45.679Z,99253.44
2019-01-13T23:37:19.233Z,99246.05
2019-01-13T23:39:50.896Z,99254.06
2019-01-13T23:42:23.355Z,99259.08
2019-01-13T23:44:55.126Z,99259.69
2019-01-13T23:47:26.851Z,99266.00
2019-01-13T23:49:58.609Z,99277.16
2019-01-13T23:52:30.367Z,99275.57
2019-01-13T23:55:02.040Z,99281.01
2019-01-13T23:57:33.739Z,99280.26
